TimeART,TemperatureF,Dew PointF,Humidity,Sea Level PressureIn,VisibilityMPH,Wind Direction,Wind SpeedMPH,Gust SpeedMPH,PrecipitationIn,Events,Conditions,WindDirDegrees,DateUTC
12:00 AM,73.4,69.8,88,29.80,6.2,Calm,Calm,-,N/A,,Mostly Cloudy,0,2012-10-29 03:00:00
1:00 AM,73.4,69.8,88,29.80,6.2,West,5.8,-,N/A,,Mostly Cloudy,270,2012-10-29 04:00:00
2:00 AM,71.6,69.8,94,29.77,6.2,NW,2.3,-,N/A,,Mostly Cloudy,320,2012-10-29 05:00:00
3:00 AM,72,70,91,,6,SW,2.3,,,,Overcast,230,2012-10-29 06:00:00
6:00 AM,69.8,66.2,88,29.74,-9999.0,NW,3.5,-,N/A,,Clear,320,2012-10-29 09:00:00
7:00 AM,68.0,66.2,94,29.74,4.3,NW,3.5,-,N/A,,Unknown,320,2012-10-29 10:00:00
8:00 AM,71.6,68.0,88,29.77,-9999.0,West,5.8,-,N/A,,Unknown,270,2012-10-29 11:00:00
9:00 AM,75.2,68.0,78,29.77,-9999.0,North,-9999.0,-,N/A,,Unknown,0,2012-10-29 12:00:00
10:00 AM,80.6,69.8,70,29.77,5.0,NE,8.1,-,N/A,,Scattered Clouds,50,2012-10-29 13:00:00
11:00 AM,84.2,69.8,62,29.74,-9999.0,East,5.8,-,N/A,,Unknown,90,2012-10-29 14:00:00
12:00 PM,86.0,69.8,58,29.71,-9999.0,East,4.6,-,N/A,,Unknown,90,2012-10-29 15:00:00
1:00 PM,89.6,64.4,43,29.68,5.0,East,5.8,-,N/A,,Scattered Clouds,90,2012-10-29 16:00:00
2:00 PM,93.2,64.4,38,29.65,5.0,East,9.2,-,N/A,,Scattered Clouds,90,2012-10-29 17:00:00
3:00 PM,95,64,26,,5,East,6.9,,,,Haze,90,2012-10-29 18:00:00
3:00 PM,95.0,64.4,36,29.62,5.0,East,6.9,-,N/A,,Partly Cloudy,90,2012-10-29 18:00:00
4:00 PM,95.0,62.6,34,29.62,5.0,NE,9.2,-,N/A,,Scattered Clouds,50,2012-10-29 19:00:00
5:00 PM,93.2,62.6,36,29.62,5.0,NE,4.6,-,N/A,,Scattered Clouds,50,2012-10-29 20:00:00
6:00 PM,91.4,66.2,43,29.62,4.3,NE,5.8,-,N/A,,Mostly Cloudy,50,2012-10-29 21:00:00
7:00 PM,89.6,66.2,46,29.65,4.3,NE,8.1,-,N/A,,Partly Cloudy,50,2012-10-29 22:00:00
8:00 PM,86.0,64.4,48,29.68,6.2,North,3.5,-,N/A,,Partly Cloudy,360,2012-10-29 23:00:00
9:00 PM,87,65,39,,6,NE,2.3,,,,Partly Cloudy,50,2012-10-30 00:00:00
9:00 PM,86.0,64.4,48,29.71,6.2,NE,2.3,-,N/A,,Partly Cloudy,50,2012-10-30 00:00:00
10:00 PM,82.4,66.2,58,29.71,6.2,WSW,4.6,-,N/A,,Partly Cloudy,250,2012-10-30 01:00:00
11:00 PM,80.6,64.4,58,29.74,6.2,SW,3.5,-,N/A,,Partly Cloudy,230,2012-10-30 02:00:00